Waianae, Hawaii
Current Conditions -  °F | °C
As of 2:58 PM on Friday 19 Dec 2014 (Local Time) from PHHI Reporting Station
Few Clouds Few Clouds  
Wind Chill: 76°   Ceiling: Unl
Heat Index: 78°   Visibility: 10mi
Dew Point: 66°   Wind: 10mph
Humidity: 71%   Direction: 90°E
Pressure: 30.02"   Gusts: NA
Location:  21.45°N, 158.19°W
Report Text: PHHI 200058Z AUTO 09009KT 10SM FEW009 25/19 A3002 RMK AO2 SLP157 T02460191 $
Loading
Personal Weather Stations






























Interactive Weather Map New forecast layout! Learn more

10-Day Weather Forecast

Advertisements
Track Severe Weather on mobile